Terminal Aerodrome Forecast
Issued by NWS

Home | Current Version | Previous Version | Graphics & Text | Print | Product List | Glossary On
Versions: 1 2 3 4 5 6 7 8 9 10 11 12 13 14 15 16
000
FTUS43 KMPX 220800 AAA
TAFRWF
TAF AMD
KRWF 220840Z 2209/2306 VRB02KT 6SM BR FEW002
      TEMPO 2209/2213 2SM BR BKN002
     FM221400 23004KT P6SM SKC=

USA.gov is the U.S. government's official web portal to all federal, state and local government web resources and services.